createdAt,value
2022-10-04T00:05:08.222Z,10.86
2022-10-04T00:10:40.197Z,10.87
2022-10-04T00:16:11.731Z,10.79
2022-10-04T00:21:43.554Z,10.69
2022-10-04T00:27:15.127Z,10.69
2022-10-04T00:32:46.838Z,10.64
2022-10-04T00:38:18.610Z,10.58
2022-10-04T00:43:54.666Z,10.59
2022-10-04T00:49:26.382Z,10.57
2022-10-04T00:54:58.090Z,10.56
2022-10-04T01:00:29.836Z,10.55
2022-10-04T01:06:01.615Z,10.5
2022-10-04T01:11:33.269Z,10.55
2022-10-04T01:17:05.021Z,10.47
2022-10-04T01:22:36.679Z,10.45
2022-10-04T01:28:08.479Z,10.42
2022-10-04T01:33:40.136Z,10.31
2022-10-04T01:39:11.885Z,10.25
2022-10-04T01:44:50.062Z,10.23
2022-10-04T01:50:21.718Z,10.24
2022-10-04T01:55:53.437Z,10.34
2022-10-04T02:01:25.289Z,10.23
2022-10-04T02:06:56.953Z,10.28
2022-10-04T02:12:28.582Z,10.22
2022-10-04T02:18:00.594Z,10.25
2022-10-04T02:23:32.091Z,10.26
2022-10-04T02:29:03.795Z,10.25
2022-10-04T02:34:35.518Z,10.2
2022-10-04T02:40:07.294Z,10.23
2022-10-04T02:45:43.387Z,10.15
2022-10-04T02:51:15.047Z,10.15
2022-10-04T02:56:46.789Z,10.19
2022-10-04T03:02:23.661Z,10.08
2022-10-04T03:07:50.241Z,10.14
2022-10-04T03:13:21.965Z,10.13
2022-10-04T03:18:53.777Z,10.32
2022-10-04T03:24:25.565Z,10.31
2022-10-04T03:29:59.257Z,10.27
2022-10-04T03:35:28.861Z,10.28
2022-10-04T03:41:00.564Z,10.19
2022-10-04T03:46:38.649Z,10.23
2022-10-04T03:52:10.437Z,10.22
2022-10-04T03:57:42.281Z,10.17
2022-10-04T04:03:13.878Z,10.14
2022-10-04T04:08:45.602Z,10.04
2022-10-04T04:14:17.262Z,9.96
2022-10-04T04:19:49.066Z,10.04
2022-10-04T04:25:20.775Z,9.79
2022-10-04T04:30:52.467Z,9.86
2022-10-04T04:36:24.236Z,9.83
2022-10-04T04:41:55.919Z,9.97
2022-10-04T04:47:32.029Z,9.77
2022-10-04T04:53:04.055Z,9.83
2022-10-04T04:58:35.519Z,10.01
2022-10-04T05:04:07.163Z,9.99
2022-10-04T05:09:38.958Z,10.06
2022-10-04T05:15:11.158Z,10.0
2022-10-04T05:20:42.342Z,9.97
2022-10-04T05:26:14.482Z,9.94
2022-10-04T05:31:45.978Z,10.01
2022-10-04T05:37:17.517Z,9.99
2022-10-04T05:42:49.257Z,9.88
2022-10-04T05:48:27.340Z,9.82
2022-10-04T05:53:59.097Z,9.92
2022-10-04T05:59:30.935Z,9.97
2022-10-04T06:05:02.567Z,9.94
2022-10-04T06:10:34.235Z,10.03
2022-10-04T06:16:05.940Z,10.09
2022-10-04T06:21:37.692Z,10.12
2022-10-04T06:27:09.412Z,10.22
2022-10-04T06:32:41.111Z,10.21
2022-10-04T06:38:12.861Z,10.18
2022-10-04T06:43:44.582Z,10.21
2022-10-04T06:49:22.666Z,10.25
2022-10-04T06:54:54.599Z,10.28
2022-10-04T07:00:26.234Z,10.49
2022-10-04T07:05:57.894Z,10.61
2022-10-04T07:11:29.675Z,10.65
2022-10-04T07:17:01.319Z,10.91
2022-10-04T07:22:33.123Z,10.98
2022-10-04T07:28:04.824Z,10.75
2022-10-04T07:33:36.564Z,10.91
2022-10-04T07:39:08.296Z,10.84
2022-10-04T07:44:39.960Z,11.04
2022-10-04T07:50:16.134Z,10.9
2022-10-04T07:55:47.849Z,11.12
2022-10-04T08:01:19.617Z,11.19
2022-10-04T08:06:51.265Z,11.24
2022-10-04T08:12:23.078Z,11.38
2022-10-04T08:17:54.761Z,11.41
2022-10-04T08:23:26.622Z,11.46
2022-10-04T08:28:58.285Z,11.81
2022-10-04T08:34:30.441Z,12.21
2022-10-04T08:40:01.705Z,12.72
2022-10-04T08:45:33.441Z,12.56
2022-10-04T08:51:09.506Z,12.61
2022-10-04T08:56:41.469Z,12.83
2022-10-04T09:02:12.962Z,13.12
2022-10-04T09:07:44.701Z,13.59
2022-10-04T09:13:16.441Z,13.81
2022-10-04T09:18:48.203Z,14.11
2022-10-04T09:24:19.833Z,13.78
2022-10-04T09:29:51.553Z,14.33
2022-10-04T09:35:23.282Z,14.15
2022-10-04T09:40:55.149Z,14.81
2022-10-04T09:46:26.758Z,14.53
2022-10-04T09:52:04.879Z,14.77
2022-10-04T09:57:36.568Z,14.66
2022-10-04T10:03:11.001Z,15.08
2022-10-04T10:08:40.067Z,15.25
2022-10-04T10:14:11.787Z,15.55
2022-10-04T10:19:43.527Z,15.73
2022-10-04T10:25:15.265Z,16.18
2022-10-04T10:30:47.022Z,16.2
2022-10-04T10:36:18.911Z,15.82
2022-10-04T10:41:50.559Z,16.25
2022-10-04T10:47:22.295Z,16.55
2022-10-04T10:52:58.373Z,16.76
2022-10-04T10:58:29.941Z,16.64
2022-10-04T11:04:01.813Z,17.18
2022-10-04T11:09:33.446Z,17.44
2022-10-04T11:15:05.182Z,17.49
2022-10-04T11:20:37.131Z,17.59
2022-10-04T11:26:08.650Z,17.95
2022-10-04T11:31:40.284Z,18.07
2022-10-04T11:37:12.062Z,18.1
2022-10-04T11:42:43.769Z,18.48
2022-10-04T11:48:15.504Z,18.23
2022-10-04T11:53:51.550Z,18.84
2022-10-04T11:59:23.287Z,19.0
2022-10-04T12:04:55.132Z,19.0
2022-10-04T12:10:26.840Z,19.39
2022-10-04T12:15:58.554Z,19.45
2022-10-04T12:21:30.255Z,19.38
2022-10-04T12:27:01.990Z,19.18
2022-10-04T12:32:33.712Z,19.5
2022-10-04T12:38:05.433Z,19.9
2022-10-04T12:43:37.178Z,20.04
2022-10-04T12:49:08.896Z,20.22
2022-10-04T12:54:44.970Z,20.47
2022-10-04T13:00:16.796Z,20.47
2022-10-04T13:05:48.401Z,20.59
2022-10-04T13:11:20.311Z,20.7
2022-10-04T13:22:44.309Z,20.78
2022-10-04T13:27:55.388Z,20.78
2022-10-04T13:33:27.075Z,21.05
2022-10-04T13:38:58.748Z,20.72
2022-10-04T13:44:30.580Z,20.99
2022-10-04T13:50:02.310Z,21.02
2022-10-04T13:55:38.331Z,20.83
2022-10-04T14:01:10.185Z,20.97
2022-10-04T14:06:41.808Z,21.0
2022-10-04T14:12:13.490Z,21.13
2022-10-04T14:17:45.236Z,20.94
2022-10-04T14:23:16.953Z,20.93
2022-10-04T14:28:48.726Z,21.07
2022-10-04T14:34:20.434Z,20.99
2022-10-04T14:39:52.214Z,21.03
2022-10-04T14:45:23.892Z,21.17
2022-10-04T14:50:55.566Z,20.93
2022-10-04T14:56:33.717Z,20.84
2022-10-04T15:02:05.538Z,20.93
2022-10-04T15:07:37.247Z,21.08
2022-10-04T15:13:11.723Z,20.98
2022-10-04T15:18:40.832Z,20.83
2022-10-04T15:24:12.408Z,20.95
2022-10-04T15:29:44.127Z,20.81
2022-10-04T15:35:15.813Z,20.75
2022-10-04T15:40:47.615Z,20.68
2022-10-04T15:46:19.337Z,20.66
2022-10-04T15:51:50.995Z,20.82
2022-10-04T15:57:29.158Z,20.75
2022-10-04T16:03:00.802Z,20.49
2022-10-04T16:08:32.581Z,20.09
2022-10-04T16:14:04.471Z,19.98
2022-10-04T16:19:36.034Z,19.88
2022-10-04T16:25:07.738Z,19.8
2022-10-04T16:30:39.546Z,19.67
2022-10-04T16:36:11.604Z,19.57
2022-10-04T16:41:42.993Z,19.35
2022-10-04T16:47:14.753Z,19.22
2022-10-04T16:52:46.406Z,18.98
2022-10-04T16:58:22.528Z,18.98
2022-10-04T17:03:54.352Z,18.87
2022-10-04T17:09:25.986Z,18.66
2022-10-04T17:14:57.699Z,18.46
2022-10-04T17:20:29.443Z,18.15
2022-10-04T17:26:01.143Z,18.06
2022-10-04T17:31:32.906Z,18.11
2022-10-04T17:37:04.691Z,18.21
2022-10-04T17:42:36.641Z,18.23
2022-10-04T17:48:08.038Z,18.19
2022-10-04T17:53:39.807Z,18.07
2022-10-04T17:59:15.894Z,18.05
2022-10-04T18:04:47.618Z,18.23
2022-10-04T18:10:23.711Z,18.18
2022-10-04T18:15:51.175Z,18.14
2022-10-04T18:21:22.784Z,17.9
2022-10-04T18:26:56.459Z,17.79
2022-10-04T18:32:26.382Z,17.73
2022-10-04T18:37:58.023Z,17.57
2022-10-04T18:43:29.782Z,17.55
2022-10-04T18:49:01.722Z,17.45
2022-10-04T18:54:33.173Z,17.4
2022-10-04T19:00:09.349Z,17.22
2022-10-04T19:05:41.020Z,17.11
2022-10-04T19:11:12.885Z,16.99
2022-10-04T19:16:44.863Z,16.96
2022-10-04T19:22:16.213Z,16.85
2022-10-04T19:27:48.069Z,16.73
2022-10-04T19:33:19.677Z,16.5
2022-10-04T19:38:51.480Z,16.58
2022-10-04T19:44:23.128Z,16.7
2022-10-04T19:49:54.861Z,16.7
2022-10-04T19:55:26.601Z,16.6
2022-10-04T20:01:04.625Z,16.53
2022-10-04T20:06:36.355Z,16.29
2022-10-04T20:12:08.458Z,16.25
2022-10-04T20:17:39.822Z,16.13
2022-10-04T20:23:11.570Z,16.04
2022-10-04T20:28:43.283Z,15.96
2022-10-04T20:34:14.950Z,15.94
2022-10-04T20:39:46.730Z,15.95
2022-10-04T20:45:18.438Z,15.85
2022-10-04T20:50:50.398Z,15.78
2022-10-04T20:56:21.916Z,15.65
2022-10-04T21:02:02.033Z,15.54
2022-10-04T21:07:33.761Z,15.43
2022-10-04T21:13:05.454Z,15.21
2022-10-04T21:18:37.117Z,15.11
2022-10-04T21:24:08.886Z,15.01
2022-10-04T21:29:40.610Z,14.96
2022-10-04T21:35:12.377Z,14.87
2022-10-04T21:40:44.053Z,14.81
2022-10-04T21:46:20.134Z,14.78
2022-10-04T21:51:47.457Z,14.72
2022-10-04T21:57:19.171Z,14.73
2022-10-04T22:02:55.270Z,14.69
2022-10-04T22:08:27.000Z,14.7
2022-10-04T22:13:58.714Z,14.56
2022-10-04T22:19:30.530Z,14.46
2022-10-04T22:25:02.280Z,14.36
2022-10-04T22:30:33.878Z,14.37
2022-10-04T22:36:05.732Z,14.35
2022-10-04T22:41:37.365Z,14.27
2022-10-04T22:47:09.138Z,14.33
2022-10-04T22:52:40.813Z,14.41
2022-10-04T22:58:12.518Z,14.38
2022-10-04T23:03:48.740Z,14.39
2022-10-04T23:09:20.430Z,14.52
2022-10-04T23:14:52.126Z,14.39
2022-10-04T23:20:23.862Z,14.25
2022-10-04T23:25:55.582Z,14.31
2022-10-04T23:31:27.244Z,14.33
2022-10-04T23:36:58.960Z,14.31
2022-10-04T23:42:30.722Z,14.35
2022-10-04T23:48:02.362Z,14.32
2022-10-04T23:53:34.123Z,14.35
2022-10-04T23:59:05.930Z,14.29
